الصفحة الرئيسية
METAR-TAF:

METAR-TAF

مطار :

Koné, نيو كاليدونيا

دائرة عرض: 21-03-12S, خط طول: 164-50-18E, ارتفاع: 7 متر

METAR: مفقودة

زمن: 05:49 (18:49 UTC)

توقعات

تاريخ ووقت الإصدار 1ساعة و 49 دقيقة قبل الساعة 17:00UTC
التوقعات صالحة من05 الساعة 18 UTC إلى 06 الساعة 18 UTC
ريح 6 عقدة من الشرق
الرؤية 10 كم أو أكثر
غيوم قليلة على ارتفاع 4000 قدم
أصبح
من 05 الساعة 23 UTC إلى 06 الساعة 01 UTC
ريح 12 عقدة من الجنوب/الجنوب الغربي
أصبح
من 06 الساعة 06 UTC إلى 06 الساعة 08 UTC
ريح 2 عقدةمن اتجاهات متغيرة

TAF: NWWD 051700Z 0518/0618 08006KT 9999 FEW040 BECMG 0523/0601 21012KT BECMG 0606/0608 VRB02KT

أرصاد الطقس والتوقعات من أكثر من 4000 مطار (تقارير الطقس للمطار METAR والتنبؤ بالطقس بالمطارTAF).

المحطات المتاحة هي النقط الصفراء والحمراء على الخريطة.

حرك المؤشر فوق النقطة لمعرفة اسم المحطة.

ثم انقر لمعرفة أرصاد وتوقعات الطقس.

لتغيير الخارطة: اضغط على الأزرار الخضراء مع رمز الصليب الأسود للتكبير. على الزر الأخضر مع شرطة للتصغير، أو على الأسهم الخضراء للخرائط المجاورة.


METAR-TAF: